Time;durP1;ratioP1;P1;durP2;ratioP2;P2;SDS_P1;SDS_P2;PMS_P1;PMS_P2;Temp;Humidity;BMP_temperature;BMP_pressure;BME280_temperature;BME280_humidity;BME280_pressure;Samples;Min_cycle;Max_cycle;Signal;HPM_P1;HPM_P2
2021/06/25 00:02:06;;;;;;;5.93;5.00;;;;;;;15.16;100.00;101137.38;4992355;28;20227;-73
2021/06/25 00:04:31;;;;;;;6.45;4.95;;;;;;;15.10;100.00;101122.06;4993072;28;20208;-75
2021/06/25 00:06:57;;;;;;;6.97;4.88;;;;;;;15.02;100.00;101135.56;5010010;28;20745;-76
2021/06/25 00:09:24;;;;;;;5.60;5.10;;;;;;;14.94;100.00;101133.44;4993506;28;20616;-74
2021/06/25 00:11:50;;;;;;;6.13;5.23;;;;;;;14.87;100.00;101145.84;5008326;28;20225;-75
2021/06/25 00:14:21;;;;;;;6.47;5.77;;;;;;;14.82;100.00;101138.50;5009503;28;20205;-74
2021/06/25 00:16:54;;;;;;;6.47;5.60;;;;;;;14.66;100.00;101134.28;4994299;28;20311;-74
2021/06/25 00:19:20;;;;;;;6.13;5.60;;;;;;;14.63;100.00;101134.03;5006183;28;20655;-74
2021/06/25 00:21:46;;;;;;;6.30;5.70;;;;;;;14.47;100.00;101138.00;4972431;28;20247;-76
2021/06/25 00:24:11;;;;;;;6.77;5.80;;;;;;;14.51;100.00;101146.47;4971071;28;20216;-74
2021/06/25 00:26:42;;;;;;;6.10;5.43;;;;;;;14.52;100.00;101146.16;5009715;28;20228;-74
2021/06/25 00:29:08;;;;;;;7.43;5.40;;;;;;;14.50;100.00;101148.34;4993495;28;20227;-75
2021/06/25 00:31:41;;;;;;;6.47;5.80;;;;;;;14.44;100.00;101152.22;5008357;28;20640;-76
2021/06/25 00:34:09;;;;;;;5.90;5.30;;;;;;;14.66;100.00;101152.59;5011374;28;20204;-75
2021/06/25 00:36:37;;;;;;;6.13;5.53;;;;;;;14.77;100.00;101157.69;4993465;28;20233;-74
2021/06/25 00:39:03;;;;;;;6.40;5.73;;;;;;;14.73;100.00;101153.09;4990149;28;20205;-74
2021/06/25 00:41:31;;;;;;;5.70;5.23;;;;;;;14.74;100.00;101160.19;4974634;28;20232;-76
2021/06/25 00:43:56;;;;;;;5.83;5.33;;;;;;;14.72;100.00;101159.66;5001555;28;20178;-74
2021/06/25 00:46:23;;;;;;;6.53;5.93;;;;;;;14.69;100.00;101152.03;4972369;28;20772;-74
2021/06/25 00:48:50;;;;;;;6.47;5.60;;;;;;;14.48;100.00;101149.75;4997122;28;20205;-74
2021/06/25 00:51:17;;;;;;;6.97;6.37;;;;;;;14.35;100.00;101155.88;4991279;28;20235;-74
2021/06/25 00:53:43;;;;;;;9.17;6.93;;;;;;;14.26;100.00;101144.72;4993138;28;20184;-73
2021/06/25 00:56:12;;;;;;;7.33;6.63;;;;;;;14.27;100.00;101149.09;5008873;28;20228;-74
2021/06/25 00:58:41;;;;;;;7.27;6.57;;;;;;;14.22;100.00;101156.50;5009570;28;20192;-75
2021/06/25 01:01:09;;;;;;;7.00;6.40;;;;;;;14.14;100.00;101159.00;5007283;28;20217;-76
2021/06/25 01:03:35;;;;;;;10.47;6.77;;;;;;;14.14;100.00;101153.53;5023125;28;20205;-75
2021/06/25 01:06:00;;;;;;;7.63;6.93;;;;;;;13.87;100.00;101148.50;4972842;28;20316;-74
2021/06/25 01:08:26;;;;;;;7.20;6.50;;;;;;;13.97;100.00;101147.63;4973932;28;20717;-74
2021/06/25 01:10:54;;;;;;;6.47;5.77;;;;;;;14.00;100.00;101142.41;4959866;28;20236;-74
2021/06/25 01:13:22;;;;;;;7.03;6.20;;;;;;;14.09;100.00;101150.88;5001044;28;20721;-75
2021/06/25 01:15:50;;;;;;;6.60;6.00;;;;;;;14.05;100.00;101150.63;4992459;28;20287;-76
2021/06/25 01:18:18;;;;;;;6.50;6.00;;;;;;;14.03;100.00;101160.19;5009572;28;20260;-76
2021/06/25 01:20:45;;;;;;;7.10;6.30;;;;;;;13.92;100.00;101161.31;5008471;28;20488;-73
2021/06/25 01:23:11;;;;;;;6.90;5.97;;;;;;;14.03;100.00;101165.66;5009166;28;20185;-73
2021/06/25 01:25:37;;;;;;;6.60;6.00;;;;;;;14.09;100.00;101162.59;5004872;28;20286;-73
2021/06/25 01:28:07;;;;;;;8.60;5.33;;;;;;;14.14;100.00;101159.00;5009086;28;20271;-73
2021/06/25 01:30:38;;;;;;;6.70;6.10;;;;;;;14.07;100.00;101151.13;4975240;28;20225;-74
2021/06/25 01:33:09;;;;;;;5.80;5.30;;;;;;;13.85;100.00;101134.31;4992690;28;20219;-74
2021/06/25 01:35:37;;;;;;;7.10;6.50;;;;;;;13.74;100.00;101140.09;5003943;28;20228;-74
2021/06/25 01:38:04;;;;;;;6.30;5.70;;;;;;;13.74;100.00;101131.91;5009080;28;20702;-74
2021/06/25 01:40:31;;;;;;;6.23;5.60;;;;;;;13.39;100.00;101127.69;5006446;28;20681;-73
2021/06/25 01:42:58;;;;;;;6.40;5.80;;;;;;;13.49;100.00;101128.47;4997254;28;20186;-73
2021/06/25 01:45:26;;;;;;;6.73;5.17;;;;;;;13.55;100.00;101136.38;4972395;28;20210;-73
2021/06/25 01:47:54;;;;;;;5.83;5.30;;;;;;;13.61;100.00;101132.53;4973492;28;20244;-72
2021/06/25 01:50:24;;;;;;;6.47;5.87;;;;;;;13.70;100.00;101141.78;4998503;28;20212;-74
2021/06/25 01:52:54;;;;;;;5.90;5.40;;;;;;;13.70;100.00;101133.56;4991318;28;20193;-74
2021/06/25 01:55:24;;;;;;;6.00;5.40;;;;;;;13.73;100.00;101146.66;4999215;28;20584;-73
2021/06/25 01:57:52;;;;;;;6.73;5.80;;;;;;;13.55;100.00;101150.03;5011708;28;20203;-75
2021/06/25 02:00:18;;;;;;;6.17;5.57;;;;;;;13.63;100.00;101145.91;5001942;28;20196;-73
2021/06/25 02:02:48;;;;;;;5.73;5.27;;;;;;;13.54;100.00;101148.38;4993091;28;20276;-73
2021/06/25 02:05:14;;;;;;;6.73;5.53;;;;;;;13.55;100.00;101155.50;4984512;28;20240;-73
2021/06/25 02:07:40;;;;;;;5.90;5.33;;;;;;;13.58;100.00;101152.19;5009026;28;20191;-73
2021/06/25 02:10:07;;;;;;;5.83;5.33;;;;;;;13.50;100.00;101144.59;4994718;28;20213;-73
2021/06/25 02:12:36;;;;;;;6.43;5.40;;;;;;;13.47;100.00;101153.31;4988102;28;20188;-73
2021/06/25 02:15:06;;;;;;;6.73;6.10;;;;;;;13.40;100.00;101132.88;5007089;28;20197;-74
2021/06/25 02:17:32;;;;;;;6.70;6.13;;;;;;;13.35;100.00;101127.47;4959868;28;20675;-74
2021/06/25 02:19:58;;;;;;;7.03;6.33;;;;;;;13.22;100.00;101128.06;4995557;28;20192;-74
2021/06/25 02:22:23;;;;;;;6.20;5.60;;;;;;;13.31;100.00;101131.00;4995239;28;20228;-74
2021/06/25 02:24:51;;;;;;;7.53;6.83;;;;;;;13.23;100.00;101124.22;5010178;28;20205;-73
2021/06/25 02:27:16;;;;;;;6.63;6.00;;;;;;;13.16;100.00;101133.78;4975770;28;20279;-74
2021/06/25 02:29:42;;;;;;;7.93;6.17;;;;;;;13.29;100.00;101128.56;4992736;28;20648;-74
2021/06/25 02:32:10;;;;;;;6.70;6.00;;;;;;;13.44;100.00;101122.22;5011592;28;20224;-73
2021/06/25 02:34:35;;;;;;;6.60;6.00;;;;;;;13.43;100.00;101120.63;4995917;28;20259;-73
2021/06/25 02:37:01;;;;;;;7.23;6.57;;;;;;;13.45;100.00;101111.84;5007437;28;20707;-73
2021/06/25 02:39:27;;;;;;;7.00;6.30;;;;;;;13.45;100.00;101112.97;4992551;28;20182;-73
2021/06/25 02:41:52;;;;;;;6.43;5.93;;;;;;;13.35;100.00;101110.25;4987801;28;20770;-73
2021/06/25 02:44:18;;;;;;;6.57;5.93;;;;;;;13.18;100.00;101112.50;4974745;28;20209;-72
2021/06/25 02:46:46;;;;;;;6.20;5.70;;;;;;;13.39;100.00;101116.78;4991099;28;20613;-72
2021/06/25 02:49:16;;;;;;;6.53;5.87;;;;;;;13.40;100.00;101107.50;4992069;28;20222;-74
2021/06/25 02:51:42;;;;;;;6.47;5.97;;;;;;;13.34;100.00;101111.38;5003799;28;20228;-73
2021/06/25 02:54:12;;;;;;;6.83;6.23;;;;;;;13.36;100.00;101107.25;5011470;28;20275;-73
2021/06/25 02:56:38;;;;;;;6.73;6.23;;;;;;;13.38;100.00;101099.59;4995171;28;20319;-73
2021/06/25 02:59:04;;;;;;;6.37;5.77;;;;;;;13.39;100.00;101105.88;4995514;28;20192;-73
2021/06/25 03:01:29;;;;;;;6.57;5.87;;;;;;;13.58;100.00;101103.06;5006803;28;20221;-74
2021/06/25 03:03:55;;;;;;;6.00;5.50;;;;;;;13.45;100.00;101100.13;4975508;28;20186;-73
2021/06/25 03:06:20;;;;;;;5.80;5.40;;;;;;;13.51;100.00;101099.00;4980852;28;20711;-75
2021/06/25 03:08:46;;;;;;;5.60;4.80;;;;;;;13.54;100.00;101088.34;4990756;28;20570;-74
2021/06/25 03:11:14;;;;;;;6.17;5.57;;;;;;;13.64;100.00;101091.00;4981065;28;20220;-73
2021/06/25 03:13:40;;;;;;;5.87;5.13;;;;;;;13.66;100.00;101091.56;4990982;28;20189;-75
2021/06/25 03:16:08;;;;;;;5.30;4.80;;;;;;;13.51;100.00;101082.63;4994674;28;20335;-74
2021/06/25 03:18:35;;;;;;;5.43;4.80;;;;;;;13.45;100.00;101082.94;4994515;28;20189;-74
2021/06/25 03:21:01;;;;;;;5.23;4.77;;;;;;;13.43;100.00;101076.94;4982117;28;20217;-73
2021/06/25 03:23:30;;;;;;;5.63;5.23;;;;;;;13.60;100.00;101079.00;4975607;28;20216;-74
2021/06/25 03:25:56;;;;;;;6.17;5.67;;;;;;;13.61;100.00;101086.13;4984680;28;20287;-73
2021/06/25 03:28:21;;;;;;;5.77;5.27;;;;;;;13.54;100.00;101082.88;4994828;28;20185;-73
2021/06/25 03:30:49;;;;;;;5.57;5.07;;;;;;;13.65;100.00;101095.38;4991936;28;20307;-74
2021/06/25 03:33:17;;;;;;;5.87;5.37;;;;;;;13.80;100.00;101091.75;4991567;28;20189;-73
2021/06/25 03:35:43;;;;;;;6.43;5.40;;;;;;;13.67;100.00;101093.19;4990928;28;20225;-73
2021/06/25 03:38:12;;;;;;;7.10;5.30;;;;;;;13.61;100.00;101094.31;4992553;28;20189;-74
2021/06/25 03:40:38;;;;;;;7.30;5.70;;;;;;;13.59;100.00;101101.97;4973584;28;20225;-74
2021/06/25 03:43:04;;;;;;;5.90;5.30;;;;;;;13.82;100.00;101098.53;5008030;28;20231;-75
2021/06/25 03:45:30;;;;;;;6.30;5.80;;;;;;;13.82;100.00;101099.34;4971090;28;20248;-75
2021/06/25 03:47:55;;;;;;;5.93;5.43;;;;;;;13.82;100.00;101112.19;4979893;28;22102;-74
2021/06/25 03:50:21;;;;;;;6.10;5.60;;;;;;;13.55;100.00;101095.44;4993896;28;20217;-76
2021/06/25 03:52:49;;;;;;;6.63;5.93;;;;;;;13.40;100.00;101093.88;4975055;28;20185;-75
2021/06/25 03:55:14;;;;;;;6.23;5.73;;;;;;;13.63;100.00;101097.56;5009909;28;20267;-76
2021/06/25 03:57:41;;;;;;;6.50;5.90;;;;;;;13.63;100.00;101097.56;4994191;28;20724;-76
2021/06/25 04:00:09;;;;;;;7.47;6.07;;;;;;;13.77;100.00;101098.56;4993344;28;20773;-76
2021/06/25 04:02:37;;;;;;;6.83;5.90;;;;;;;13.87;100.00;101101.25;5001417;28;20212;-76
2021/06/25 04:05:10;;;;;;;8.00;6.73;;;;;;;14.07;100.00;101110.16;5010061;28;20211;-76
2021/06/25 04:07:38;;;;;;;9.30;6.77;;;;;;;13.95;100.00;101106.91;5005283;28;20213;-77
2021/06/25 04:10:05;;;;;;;6.80;6.20;;;;;;;13.99;100.00;101101.72;4976577;28;20229;-77
2021/06/25 04:12:31;;;;;;;7.20;6.50;;;;;;;14.03;100.00;101114.56;4993745;28;20288;-76
2021/06/25 04:14:59;;;;;;;8.03;7.27;;;;;;;14.05;100.00;101117.03;4974499;28;20690;-76
2021/06/25 04:17:27;;;;;;;7.80;7.03;;;;;;;14.18;100.00;101102.72;4993498;28;20218;-77
2021/06/25 04:19:53;;;;;;;7.47;6.80;;;;;;;14.11;100.00;101088.56;4973963;28;20182;-75
2021/06/25 04:22:24;;;;;;;8.63;7.33;;;;;;;13.72;100.00;101098.63;5012118;28;20221;-75
2021/06/25 04:24:49;;;;;;;7.20;6.60;;;;;;;13.90;100.00;101095.25;4993812;28;20567;-76
2021/06/25 04:27:15;;;;;;;8.27;7.47;;;;;;;14.20;100.00;101086.84;4992895;28;20236;-74
2021/06/25 04:29:41;;;;;;;8.10;7.27;;;;;;;14.21;100.00;101088.47;4993801;28;20690;-74
2021/06/25 04:32:07;;;;;;;8.70;7.80;;;;;;;14.34;100.00;101089.47;5008383;28;20334;-75
2021/06/25 04:34:36;;;;;;;8.17;7.37;;;;;;;14.07;100.00;101079.31;4992940;28;20235;-74
2021/06/25 04:37:02;;;;;;;8.07;7.27;;;;;;;14.23;100.00;101075.34;4993627;28;20225;-75
2021/06/25 04:39:27;;;;;;;7.70;6.93;;;;;;;14.29;100.00;101075.03;4993767;28;20236;-75
2021/06/25 04:41:58;;;;;;;7.83;7.13;;;;;;;14.55;100.00;101063.56;5014085;28;20212;-75
2021/06/25 04:44:23;;;;;;;8.07;7.27;;;;;;;14.71;100.00;101076.81;5007477;28;20247;-76
2021/06/25 04:46:53;;;;;;;7.97;7.23;;;;;;;14.81;100.00;101073.13;5006920;28;20232;-76
2021/06/25 04:49:19;;;;;;;8.60;6.57;;;;;;;14.49;100.00;101075.66;4993154;28;20221;-76
2021/06/25 04:51:44;;;;;;;25.23;21.97;;;;;;;14.51;100.00;101070.72;5020590;28;20697;-76
2021/06/25 04:54:10;;;;;;;37.33;32.77;;;;;;;14.59;100.00;101064.63;4985474;28;20213;-75
2021/06/25 04:56:38;;;;;;;23.97;21.33;;;;;;;14.64;100.00;101070.84;4997621;28;20258;-76
2021/06/25 04:59:04;;;;;;;13.37;10.60;;;;;;;14.72;100.00;101072.13;4977462;28;20659;-76
2021/06/25 05:01:33;;;;;;;12.90;11.60;;;;;;;14.73;100.00;101068.31;4988947;28;20229;-76
2021/06/25 05:04:01;;;;;;;9.30;8.40;;;;;;;14.55;100.00;101063.56;5004955;28;20264;-76
2021/06/25 05:06:27;;;;;;;8.68;7.78;;;;;;;14.64;100.00;101068.13;4990269;28;20228;-76
2021/06/25 05:08:52;;;;;;;8.40;7.70;;;;;;;14.93;100.00;101060.69;5004990;28;20216;-79
2021/06/25 05:11:21;;;;;;;8.03;7.33;;;;;;;14.79;100.00;101059.75;4990713;28;20581;-77
2021/06/25 05:13:46;;;;;;;8.50;7.10;;;;;;;14.79;100.00;101070.69;4998367;28;20231;-76
2021/06/25 05:16:14;;;;;;;33.13;27.20;;;;;;;14.86;100.00;101056.69;5020539;28;20217;-78
2021/06/25 05:18:40;;;;;;;19.85;17.27;;;;;;;14.97;100.00;101060.94;5015256;28;20268;-76
2021/06/25 05:21:08;;;;;;;9.33;8.43;;;;;;;15.11;100.00;101062.69;4998169;28;20245;-76
2021/06/25 05:23:36;;;;;;;7.60;7.00;;;;;;;15.54;100.00;101073.38;5005935;28;20553;-77
2021/06/25 05:26:02;;;;;;;8.23;7.43;;;;;;;15.58;100.00;101074.41;5011716;28;20229;-76
2021/06/25 05:28:28;;;;;;;7.93;7.22;;;;;;;15.57;100.00;101072.78;5007985;28;20274;-76
2021/06/25 05:30:53;;;;;;;8.07;7.38;;;;;;;15.53;100.00;101080.78;4973538;28;20257;-75
2021/06/25 05:33:19;;;;;;;8.98;7.40;;;;;;;15.36;100.00;101087.84;4990319;28;20220;-77
2021/06/25 05:35:45;;;;;;;7.32;6.63;;;;;;;15.65;100.00;101077.59;4972057;28;20225;-77
2021/06/25 05:38:19;;;;;;;7.70;6.95;;;;;;;16.06;100.00;101080.28;4992004;28;20565;-76
2021/06/25 05:40:45;;;;;;;12.23;7.60;;;;;;;15.92;100.00;101079.38;4993138;28;20248;-76
2021/06/25 05:43:10;;;;;;;8.35;6.93;;;;;;;15.93;100.00;101086.50;5006145;28;20319;-76
2021/06/25 05:45:39;;;;;;;7.80;7.10;;;;;;;15.89;100.00;101088.19;4955773;28;20280;-76
2021/06/25 05:48:05;;;;;;;7.97;7.28;;;;;;;16.10;100.00;101083.22;4989955;28;20228;-77
2021/06/25 05:50:31;;;;;;;8.35;7.45;;;;;;;16.26;100.00;101078.06;4990947;28;20248;-77
2021/06/25 05:52:59;;;;;;;8.52;7.72;;;;;;;16.55;100.00;101086.88;5009024;28;20184;-76
2021/06/25 05:55:27;;;;;;;7.85;7.10;;;;;;;15.98;100.00;101091.91;4992073;28;20233;-77
2021/06/25 05:57:53;;;;;;;7.97;7.00;;;;;;;16.29;100.00;101090.34;5002734;28;20246;-76
2021/06/25 06:00:18;;;;;;;7.60;6.95;;;;;;;16.90;100.00;101095.28;4988191;28;20190;-76
2021/06/25 06:02:47;;;;;;;7.53;6.78;;;;;;;17.07;100.00;101101.03;4989255;28;20212;-77
2021/06/25 06:05:15;;;;;;;7.78;6.97;;;;;;;16.72;100.00;101109.91;5004801;28;20201;-77
2021/06/25 06:07:43;;;;;;;9.38;6.72;;;;;;;16.98;100.00;101091.84;5008968;28;20185;-76
2021/06/25 06:10:09;;;;;;;6.97;6.38;;;;;;;16.72;100.00;101087.94;5020046;28;20209;-76
2021/06/25 06:12:37;;;;;;;7.50;6.80;;;;;;;17.31;100.00;101090.66;4982033;28;20204;-76
2021/06/25 06:15:07;;;;;;;6.32;5.68;;;;;;;17.35;100.00;101087.00;5004584;28;20690;-75
2021/06/25 06:17:35;;;;;;;6.32;5.63;;;;;;;17.07;100.00;101079.06;4992785;28;20247;-77
2021/06/25 06:20:01;;;;;;;6.40;5.63;;;;;;;17.46;100.00;101072.75;4988889;28;20552;-76
2021/06/25 06:36:27;;;;;;;4.95;4.45;;;;;;;17.60;99.45;101081.81;4975542;28;20229;-77
2021/06/25 06:38:53;;;;;;;5.05;4.55;;;;;;;18.07;97.72;101086.75;4972771;28;20185;-78
2021/06/25 06:41:23;;;;;;;6.93;4.72;;;;;;;17.98;95.12;101091.38;4997547;28;20225;-77
2021/06/25 06:43:51;;;;;;;6.03;5.13;;;;;;;18.15;91.71;101098.69;4994330;28;20574;-75
2021/06/25 06:46:19;;;;;;;6.38;5.13;;;;;;;18.10;91.23;101094.44;5027678;28;20998;-77
2021/06/25 06:48:50;;;;;;;5.10;4.35;;;;;;;18.46;89.79;101096.84;5011851;28;20189;-77
2021/06/25 06:51:20;;;;;;;5.45;4.95;;;;;;;18.20;90.32;101106.00;5011328;28;20236;-77
2021/06/25 06:53:46;;;;;;;6.88;5.30;;;;;;;18.38;89.44;101103.06;5012778;28;20185;-77
2021/06/25 06:56:16;;;;;;;5.82;5.28;;;;;;;18.28;88.92;101102.53;4993161;28;20733;-76
2021/06/25 06:58:45;;;;;;;5.82;5.20;;;;;;;18.45;89.61;101108.94;4959966;28;20173;-75
2021/06/25 07:12:26;;;;;;;3.75;3.45;;;;;;;19.06;82.78;101110.66;5007656;28;20227;-76
2021/06/25 07:14:51;;;;;;;4.18;3.40;;;;;;;19.39;79.00;101111.94;4986180;28;20212;-76
2021/06/25 07:17:20;;;;;;;3.75;3.45;;;;;;;19.80;76.67;101108.47;5010921;28;20225;-77
2021/06/25 07:19:47;;;;;;;4.75;3.30;;;;;;;20.02;74.99;101100.13;5010465;28;20199;-77
2021/06/25 07:22:13;;;;;;;4.20;3.80;;;;;;;20.35;74.18;101106.78;5026555;28;20212;-75
2021/06/25 07:24:38;;;;;;;5.13;4.30;;;;;;;20.77;72.93;101093.75;5010192;28;20274;-78
2021/06/25 07:27:07;;;;;;;4.00;3.60;;;;;;;20.97;71.26;101084.72;5007715;28;20234;-78
2021/06/25 07:29:37;;;;;;;5.38;4.15;;;;;;;21.37;69.44;101095.97;4975792;28;20221;-75
2021/06/25 07:32:03;;;;;;;4.35;3.70;;;;;;;21.33;69.93;101083.13;4990719;28;20269;-76
2021/06/25 07:34:29;;;;;;;5.20;3.70;;;;;;;20.76;65.44;101092.13;4992577;28;20300;-76
2021/06/25 07:36:57;;;;;;;3.40;2.85;;;;;;;20.87;67.98;101093.38;4988072;28;20268;-75
2021/06/25 07:39:25;;;;;;;8.38;3.63;;;;;;;20.81;66.96;101086.44;4959614;28;20192;-77
2021/06/25 07:41:50;;;;;;;3.70;3.40;;;;;;;20.88;68.58;101095.03;4992766;28;20777;-74
2021/06/25 07:44:16;;;;;;;5.28;3.50;;;;;;;20.70;68.52;101090.69;4997491;28;20272;-76
2021/06/25 07:46:44;;;;;;;3.58;3.28;;;;;;;21.45;66.38;101078.56;5006092;28;20707;-76
2021/06/25 07:49:09;;;;;;;3.55;2.90;;;;;;;21.69;65.59;101087.84;5010208;28;20670;-76
2021/06/25 07:51:35;;;;;;;4.45;2.63;;;;;;;21.93;66.38;101078.91;4988351;28;20236;-72
2021/06/25 07:54:05;;;;;;;3.03;2.70;;;;;;;21.71;66.37;101076.44;4990805;28;20186;-76
2021/06/25 07:56:33;;;;;;;3.58;3.22;;;;;;;21.38;65.84;101078.22;5002758;28;20255;-75
2021/06/25 07:58:59;;;;;;;3.83;3.33;;;;;;;21.24;66.65;101083.19;5011614;28;20177;-75
2021/06/25 08:01:25;;;;;;;5.40;2.58;;;;;;;21.72;66.74;101078.88;5002230;28;20308;-73
2021/06/25 08:03:53;;;;;;;3.83;2.70;;;;;;;21.35;68.42;101084.41;4992029;28;20177;-76
2021/06/25 08:06:19;;;;;;;4.43;3.50;;;;;;;21.41;66.54;101079.53;4983629;28;20314;-74
2021/06/25 08:08:47;;;;;;;2.90;2.60;;;;;;;21.69;66.45;101078.75;4994843;28;20634;-75
2021/06/25 08:11:14;;;;;;;3.10;2.90;;;;;;;22.00;65.33;101073.66;4989358;28;20217;-76
2021/06/25 08:13:40;;;;;;;4.45;2.50;;;;;;;22.08;64.17;101073.56;5013619;28;20235;-76
2021/06/25 08:16:07;;;;;;;3.70;3.40;;;;;;;21.01;65.67;101077.44;5009621;28;20217;-76
2021/06/25 08:18:32;;;;;;;4.28;3.13;;;;;;;21.07;66.65;101071.38;5009921;28;20188;-75
2021/06/25 08:21:03;;;;;;;6.35;4.10;;;;;;;21.33;66.02;101081.16;4994819;28;20225;-76
2021/06/25 08:23:34;;;;;;;4.97;4.47;;;;;;;20.38;66.08;101087.59;4975242;28;20185;-76
2021/06/25 08:26:02;;;;;;;4.28;3.97;;;;;;;21.41;63.44;101082.31;5009744;28;20279;-76
2021/06/25 08:28:30;;;;;;;5.90;4.57;;;;;;;21.58;61.25;101079.47;4994052;28;20965;-76
2021/06/25 08:30:55;;;;;;;5.50;4.50;;;;;;;20.75;65.88;101079.47;5022115;28;20256;-75
2021/06/25 08:33:22;;;;;;;4.68;4.28;;;;;;;21.07;68.42;101073.34;4989978;28;20200;-76
2021/06/25 08:35:48;;;;;;;4.88;4.47;;;;;;;21.29;66.46;101073.88;5003022;28;20298;-76
2021/06/25 08:38:14;;;;;;;5.57;5.07;;;;;;;20.69;65.93;101072.47;5004317;28;20239;-76
2021/06/25 08:40:42;;;;;;;5.93;5.10;;;;;;;20.80;68.37;101075.69;4990178;28;20221;-76
2021/06/25 08:43:07;;;;;;;6.43;5.10;;;;;;;20.69;67.92;101075.22;5000435;28;20289;-77
2021/06/25 08:45:35;;;;;;;6.32;5.15;;;;;;;21.32;65.77;101081.53;4982519;28;20248;-74
2021/06/25 08:48:05;;;;;;;5.43;4.97;;;;;;;21.53;65.72;101068.59;5004910;28;20196;-75
2021/06/25 08:50:32;;;;;;;5.60;5.10;;;;;;;21.13;67.38;101075.56;5008887;28;20725;-75
2021/06/25 08:53:00;;;;;;;5.40;5.00;;;;;;;21.17;65.03;101075.72;5006295;28;20651;-76
2021/06/25 08:55:25;;;;;;;5.53;5.00;;;;;;;21.33;64.15;101075.63;4957319;28;20289;-74
2021/06/25 08:57:53;;;;;;;5.72;5.10;;;;;;;21.57;65.42;101070.34;5004867;28;20235;-75
2021/06/25 09:00:21;;;;;;;4.93;4.50;;;;;;;21.49;67.21;101085.03;5007629;28;20707;-75
2021/06/25 09:02:50;;;;;;;5.75;5.18;;;;;;;21.25;67.52;101084.78;4967511;28;20565;-74
2021/06/25 09:05:21;;;;;;;5.45;5.00;;;;;;;21.18;66.93;101077.38;4994686;28;20212;-75
2021/06/25 09:07:51;;;;;;;4.97;4.57;;;;;;;21.36;67.75;101079.72;4988101;28;20212;-77
2021/06/25 09:10:28;;;;;;;5.60;5.10;;;;;;;21.38;66.73;101077.44;4998202;28;20209;-76
2021/06/25 09:13:14;;;;;;;5.28;4.60;;;;;;;21.61;68.81;101076.00;5015783;28;20737;-76
2021/06/25 09:15:43;;;;;;;5.07;4.57;;;;;;;21.26;70.41;101075.38;5021047;28;20244;-75
2021/06/25 09:18:14;;;;;;;5.57;5.07;;;;;;;21.12;69.46;101076.72;4990199;28;20189;-78
2021/06/25 09:20:50;;;;;;;5.88;5.38;;;;;;;20.93;69.52;101076.31;4971993;28;20221;-76
2021/06/25 09:23:38;;;;;;;5.07;4.68;;;;;;;21.08;69.68;101074.94;4973174;28;20189;-76
2021/06/25 09:26:10;;;;;;;5.50;5.00;;;;;;;21.22;69.57;101076.34;5009563;28;20721;-76
2021/06/25 09:28:45;;;;;;;4.95;4.55;;;;;;;21.34;69.32;101076.47;5008391;28;20228;-78
2021/06/25 09:31:11;;;;;;;5.88;5.10;;;;;;;21.33;69.76;101075.63;5008532;28;20224;-78
2021/06/25 09:33:51;;;;;;;5.15;4.65;;;;;;;21.03;70.27;101077.91;5008669;28;20552;-78
2021/06/25 09:36:33;;;;;;;5.43;4.82;;;;;;;20.43;72.68;101072.84;4993639;28;20228;-78
2021/06/25 09:39:16;;;;;;;5.00;4.60;;;;;;;20.26;74.90;101075.63;5009664;28;20737;-78
2021/06/25 09:41:43;;;;;;;6.18;5.00;;;;;;;20.29;73.40;101084.06;4998311;28;20642;-79
2021/06/25 09:44:16;;;;;;;6.57;5.68;;;;;;;20.30;72.08;101071.84;5006918;28;20236;-77
2021/06/25 09:46:42;;;;;;;5.95;5.45;;;;;;;20.85;72.74;101073.56;4991807;28;20729;-77
2021/06/25 09:49:09;;;;;;;5.10;4.68;;;;;;;21.41;70.33;101074.84;5006026;28;20217;-76
2021/06/25 09:51:37;;;;;;;6.15;5.38;;;;;;;21.48;68.65;101071.53;4996333;28;20240;-76
2021/06/25 09:54:14;;;;;;;6.30;5.70;;;;;;;21.50;68.84;101070.09;4983012;28;20181;-76
2021/06/25 09:56:51;;;;;;;6.65;5.95;;;;;;;20.58;70.84;101073.13;5008609;28;20323;-76
2021/06/25 10:04:46;;;;;;;6.55;6.00;;;;;;;20.98;70.68;101067.84;5001606;28;20586;-75
2021/06/25 10:07:13;;;;;;;6.38;5.78;;;;;;;20.94;70.57;101071.59;4953794;28;20266;-75
2021/06/25 10:09:39;;;;;;;6.95;6.35;;;;;;;20.76;70.51;101069.22;4981758;28;20209;-75
2021/06/25 10:12:07;;;;;;;7.30;6.70;;;;;;;20.96;71.64;101072.09;5005622;28;20283;-75
2021/06/25 10:14:35;;;;;;;6.30;5.70;;;;;;;21.26;68.94;101072.63;4989113;28;20665;-75
2021/06/25 10:17:05;;;;;;;6.85;5.55;;;;;;;21.56;68.89;101068.72;4993249;28;20800;-76
2021/06/25 10:19:40;;;;;;;6.13;5.10;;;;;;;21.87;66.08;101063.66;4979046;28;20217;-75
2021/06/25 10:22:07;;;;;;;6.35;5.75;;;;;;;20.92;72.18;101054.53;4976124;28;20781;-76
2021/06/25 10:24:35;;;;;;;6.50;5.85;;;;;;;21.73;70.11;101057.56;4991684;28;20200;-77
2021/06/25 10:27:02;;;;;;;7.28;6.68;;;;;;;22.35;64.80;101048.94;4993466;28;20256;-76
2021/06/25 10:29:28;;;;;;;5.72;5.20;;;;;;;22.44;64.92;101052.44;4993474;28;20670;-77
2021/06/25 10:31:55;;;;;;;5.30;4.80;;;;;;;23.20;62.51;101049.59;5008412;28;20239;-76
2021/06/25 10:34:20;;;;;;;7.82;6.40;;;;;;;23.29;62.01;101042.78;4992143;28;20296;-75
2021/06/25 10:36:51;;;;;;;6.93;6.32;;;;;;;23.45;61.80;101051.25;4986116;28;20275;-73
2021/06/25 10:39:17;;;;;;;8.98;6.45;;;;;;;23.38;63.13;101039.91;5009050;28;20196;-76
2021/06/25 10:41:52;;;;;;;6.45;5.95;;;;;;;23.37;60.98;101049.38;5001987;28;20703;-76
2021/06/25 10:44:33;;;;;;;7.80;7.00;;;;;;;23.73;60.53;101039.88;4983091;28;20884;-71
2021/06/25 10:47:18;;;;;;;7.60;6.90;;;;;;;23.20;62.64;101047.66;5008230;28;20214;-71
2021/06/25 10:50:09;;;;;;;9.38;6.75;;;;;;;24.00;60.32;101044.69;4980240;28;20213;-74
2021/06/25 10:52:41;;;;;;;8.07;6.93;;;;;;;23.92;59.39;101050.38;4993084;28;20412;-76
2021/06/25 10:55:07;;;;;;;8.75;7.60;;;;;;;23.65;59.69;101049.16;4993377;28;20224;-75
2021/06/25 10:57:37;;;;;;;7.47;6.75;;;;;;;24.28;57.72;101049.13;4995577;28;20263;-76
2021/06/25 11:00:09;;;;;;;7.70;7.03;;;;;;;23.96;58.08;101038.25;4991736;28;20205;-76
2021/06/25 11:02:51;;;;;;;8.13;7.43;;;;;;;23.65;59.89;101040.84;4993350;28;20240;-77
2021/06/25 11:05:25;;;;;;;8.00;7.32;;;;;;;23.73;60.11;101036.31;4974064;28;20220;-74
2021/06/25 11:07:50;;;;;;;8.25;7.28;;;;;;;24.46;55.88;101029.03;4992128;28;20268;-77
2021/06/25 11:10:25;;;;;;;8.18;7.47;;;;;;;24.69;55.42;101026.47;4981843;28;20302;-74
2021/06/25 11:13:11;;;;;;;7.22;6.53;;;;;;;24.69;54.99;101027.28;5008534;28;20205;-75
2021/06/25 11:15:38;;;;;;;6.43;5.93;;;;;;;24.57;53.50;101030.13;5001608;28;21034;-75
2021/06/25 11:18:19;;;;;;;18.02;7.43;;;;;;;24.89;55.71;101018.69;4976793;28;20608;-74
2021/06/25 11:21:00;;;;;;;6.65;6.13;;;;;;;24.66;53.80;101016.09;5010184;28;20225;-78
2021/06/25 11:23:27;;;;;;;7.22;6.45;;;;;;;24.82;53.16;101015.72;5011485;28;20324;-78
2021/06/25 11:26:02;;;;;;;6.88;6.18;;;;;;;25.13;52.94;101016.56;4990033;28;20233;-78
2021/06/25 11:28:31;;;;;;;7.00;6.28;;;;;;;24.47;51.44;101019.53;4958152;28;20296;-77
2021/06/25 11:31:03;;;;;;;6.65;6.05;;;;;;;24.87;52.33;101014.66;4989393;28;20320;-78
2021/06/25 11:33:28;;;;;;;7.30;6.68;;;;;;;24.88;50.66;101011.50;4990636;28;20682;-76
2021/06/25 11:35:54;;;;;;;5.80;5.20;;;;;;;24.85;52.85;101009.47;5007508;28;20311;-77
2021/06/25 11:38:55;;;;;;;5.97;5.25;;;;;;;25.25;49.60;101012.88;4960056;28;20722;-78
2021/06/25 11:41:25;;;;;;;6.40;5.90;;;;;;;25.62;46.78;101013.03;4991715;28;20218;-78
2021/06/25 11:43:51;;;;;;;6.03;5.28;;;;;;;25.71;46.13;101010.84;5001788;28;20197;-76
2021/06/25 11:46:17;;;;;;;6.40;5.47;;;;;;;25.88;47.53;101004.03;4991653;28;20600;-78
2021/06/25 11:48:51;;;;;;;6.65;5.45;;;;;;;25.85;45.37;101010.34;4976118;28;20193;-77
2021/06/25 11:51:18;;;;;;;5.85;5.20;;;;;;;25.84;44.72;101008.72;4991364;28;20320;-76
2021/06/25 11:53:44;;;;;;;6.10;5.43;;;;;;;26.20;44.93;100998.78;4975506;28;20174;-76
2021/06/25 11:56:23;;;;;;;5.38;4.88;;;;;;;26.40;42.68;100989.25;4989907;28;20225;-73